Terminal Aerodrome Forecast
Issued by NWS North Platte, NE

Home | Current Version | Previous Version | Graphics & Text | Print | Product List | Glossary On
Versions: 1 2 3 4 5 6 7 8 9 10 11 12 13 14 15 16 17
000
FTUS43 KLBF 232300
TAFVTN
TAF
KVTN 232320Z 2400/2424 32024G35KT P6SM BKN060 OVC120
      TEMPO 2400/2403 5SM -SHSN OVC030
     FM240300 32020G30KT P6SM -SN OVC025
     FM240600 32015G25KT P6SM OVC020
     FM241600 32020G28KT P6SM SCT020=

USA.gov is the U.S. government's official web portal to all federal, state and local government web resources and services.